Aérodrome :
LOGIN :

S'inscrire | Disclaimer

   EN    FR    IT 

 










Légende :    VFR   VFR Marginal   IFR   IFR Intensif   IFR Très Intensif
Visi : 
Plafond : 
>= 8 km
>= 3000ft
5 à 8 km
1000 à 3000 ft
1500m à 5 km
500 à 1000 ft
800 à 1500m
200 à 500 ft
< 800m
< 200 ft
Symboles :   Orages  Brouillard  Fortes neiges  Fortes précipitations  Vent > 20 kt
SIGMETs :   Divers  Orages  Givrage  Turbulence  Onde Orograph.  Cendres Volcan.







- Altitude de l'aérodrome : 285 ft
- Code IATA : GOZ


LBGO - Gorna Oryahovitsa

DERNIER METAR :
  • 200030Z AUTO 15004KT 110V190 9999 NCD 22/08 Q1006

METARs EXPIRÉS :
  • 200000Z AUTO 17009KT 9999 NCD 23/08 Q1006
  • 192330Z AUTO 18012KT 9999 NCD 24/08 Q1006
  • 192300Z AUTO 11006KT 080V150 9999 NCD 21/12 Q1006
  • 192230Z AUTO 11008KT 9999 NCD 22/12 Q1006
  • 192200Z AUTO 12006KT 9999 NCD 22/13 Q1006

TAF TAF LBGO
Valide du 20 à 00h jusqu'au 21 à 00h UTC


192300Z 2000/2024 13008KT 9999 SCT050
TEMPO 2015/2018 VRB16G26KT 4000 TSRA SCT015 SCT030CB BKN040
BECMG 2017/2019 28012KT
TEMPO 2019/2024 SHRA SCT020 FEW030CB BKN040
Pas de NOTAMs connus pour ce terrain.



MET'MAP, la Météo Aéronautique d'un coup d'oeil ! - Copyright ORBIFLY Décembre 2007 - Disclaimer

ORBIFLY MET'MAP TEAM :

Programmation & Développement : Alexandra Zaïnal
Conception & Développement : Baudouin d'Aumeries
Co-Programmation & Développement : Marc-Olivier Méhu
Soutien technique & logistique : Manuel Goepfert

Contact : metmap@orbifly.com




SOURCES & CREDITS :

   NOAA